sensor_id;sensor_type;location;lat;lon;timestamp;temperature;humidity
49222;DHT22;35047;37.588;-122.048;2022-09-01T00:01:32;32.30;43.90
49222;DHT22;35047;37.588;-122.048;2022-09-01T00:03:59;32.30;43.80
49222;DHT22;35047;37.588;-122.048;2022-09-01T00:06:29;32.20;44.30
49222;DHT22;35047;37.588;-122.048;2022-09-01T00:08:56;32.10;45.50
49222;DHT22;35047;37.588;-122.048;2022-09-01T00:11:24;32.00;44.30
49222;DHT22;35047;37.588;-122.048;2022-09-01T00:13:52;31.80;44.70
49222;DHT22;35047;37.588;-122.048;2022-09-01T00:16:19;31.60;45.10
49222;DHT22;35047;37.588;-122.048;2022-09-01T00:18:47;31.50;44.90
49222;DHT22;35047;37.588;-122.048;2022-09-01T00:21:15;31.30;45.30
49222;DHT22;35047;37.588;-122.048;2022-09-01T00:23:42;31.20;45.70
49222;DHT22;35047;37.588;-122.048;2022-09-01T00:26:08;31.40;45.80
49222;DHT22;35047;37.588;-122.048;2022-09-01T00:28:35;31.20;45.60
49222;DHT22;35047;37.588;-122.048;2022-09-01T00:31:02;31.20;45.50
49222;DHT22;35047;37.588;-122.048;2022-09-01T00:33:31;31.30;45.60
49222;DHT22;35047;37.588;-122.048;2022-09-01T00:35:58;31.40;45.60
49222;DHT22;35047;37.588;-122.048;2022-09-01T00:38:24;31.20;45.90
49222;DHT22;35047;37.588;-122.048;2022-09-01T00:40:52;31.20;45.90
49222;DHT22;35047;37.588;-122.048;2022-09-01T00:43:23;31.20;46.00
49222;DHT22;35047;37.588;-122.048;2022-09-01T00:46:04;31.20;45.80
49222;DHT22;35047;37.588;-122.048;2022-09-01T00:48:31;31.40;45.90
49222;DHT22;35047;37.588;-122.048;2022-09-01T00:50:57;31.50;46.20
49222;DHT22;35047;37.588;-122.048;2022-09-01T00:53:24;31.50;46.60
49222;DHT22;35047;37.588;-122.048;2022-09-01T00:55:51;31.60;46.20
49222;DHT22;35047;37.588;-122.048;2022-09-01T00:58:17;31.60;45.70
49222;DHT22;35047;37.588;-122.048;2022-09-01T01:00:43;31.70;45.60
49222;DHT22;35047;37.588;-122.048;2022-09-01T01:03:12;31.70;45.00
49222;DHT22;35047;37.588;-122.048;2022-09-01T01:05:40;31.90;45.10
49222;DHT22;35047;37.588;-122.048;2022-09-01T01:08:07;31.80;45.20
49222;DHT22;35047;37.588;-122.048;2022-09-01T01:10:35;32.00;45.80
49222;DHT22;35047;37.588;-122.048;2022-09-01T01:13:12;32.00;45.40
49222;DHT22;35047;37.588;-122.048;2022-09-01T01:15:40;32.10;45.00
49222;DHT22;35047;37.588;-122.048;2022-09-01T01:18:13;31.90;45.10
49222;DHT22;35047;37.588;-122.048;2022-09-01T01:20:40;32.10;45.80
49222;DHT22;35047;37.588;-122.048;2022-09-01T01:25:56;32.30;44.30
49222;DHT22;35047;37.588;-122.048;2022-09-01T01:28:25;32.30;43.30
49222;DHT22;35047;37.588;-122.048;2022-09-01T01:30:56;32.30;43.70
49222;DHT22;35047;37.588;-122.048;2022-09-01T01:33:25;32.30;43.40
49222;DHT22;35047;37.588;-122.048;2022-09-01T01:35:52;32.20;43.40
49222;DHT22;35047;37.588;-122.048;2022-09-01T01:38:19;32.20;42.90
49222;DHT22;35047;37.588;-122.048;2022-09-01T01:40:47;32.40;42.70
49222;DHT22;35047;37.588;-122.048;2022-09-01T01:43:13;32.40;42.90
49222;DHT22;35047;37.588;-122.048;2022-09-01T01:45:51;32.40;43.50
49222;DHT22;35047;37.588;-122.048;2022-09-01T01:48:19;32.40;44.40
49222;DHT22;35047;37.588;-122.048;2022-09-01T01:50:48;32.10;44.00
49222;DHT22;35047;37.588;-122.048;2022-09-01T01:53:16;32.00;43.30
49222;DHT22;35047;37.588;-122.048;2022-09-01T01:55:46;31.60;43.20
49222;DHT22;35047;37.588;-122.048;2022-09-01T01:58:14;31.40;43.40
49222;DHT22;35047;37.588;-122.048;2022-09-01T02:00:41;31.10;44.10
49222;DHT22;35047;37.588;-122.048;2022-09-01T02:03:09;30.90;44.80
49222;DHT22;35047;37.588;-122.048;2022-09-01T02:05:37;30.60;45.10
49222;DHT22;35047;37.588;-122.048;2022-09-01T02:08:05;30.50;46.00
49222;DHT22;35047;37.588;-122.048;2022-09-01T02:10:39;30.30;45.30
49222;DHT22;35047;37.588;-122.048;2022-09-01T02:13:07;30.20;45.20
49222;DHT22;35047;37.588;-122.048;2022-09-01T02:15:35;30.10;45.10
49222;DHT22;35047;37.588;-122.048;2022-09-01T02:18:08;29.80;45.30
49222;DHT22;35047;37.588;-122.048;2022-09-01T02:20:34;29.90;45.50
49222;DHT22;35047;37.588;-122.048;2022-09-01T02:23:01;29.80;46.20
49222;DHT22;35047;37.588;-122.048;2022-09-01T02:25:34;29.70;46.20
49222;DHT22;35047;37.588;-122.048;2022-09-01T02:28:01;29.70;47.00
49222;DHT22;35047;37.588;-122.048;2022-09-01T02:30:29;29.60;47.30
49222;DHT22;35047;37.588;-122.048;2022-09-01T02:32:57;29.50;48.00
49222;DHT22;35047;37.588;-122.048;2022-09-01T02:35:24;29.30;48.20
49222;DHT22;35047;37.588;-122.048;2022-09-01T02:37:56;29.30;48.10
49222;DHT22;35047;37.588;-122.048;2022-09-01T02:40:26;29.00;49.30
49222;DHT22;35047;37.588;-122.048;2022-09-01T02:42:56;29.00;51.00
49222;DHT22;35047;37.588;-122.048;2022-09-01T02:45:25;28.80;52.40
49222;DHT22;35047;37.588;-122.048;2022-09-01T02:47:52;28.50;53.30
49222;DHT22;35047;37.588;-122.048;2022-09-01T02:50:18;28.40;53.70
49222;DHT22;35047;37.588;-122.048;2022-09-01T02:52:45;28.10;54.20
49222;DHT22;35047;37.588;-122.048;2022-09-01T02:55:14;28.10;54.50
49222;DHT22;35047;37.588;-122.048;2022-09-01T02:57:45;28.00;54.60
49222;DHT22;35047;37.588;-122.048;2022-09-01T03:00:13;27.90;54.80
49222;DHT22;35047;37.588;-122.048;2022-09-01T03:02:50;27.70;55.40
49222;DHT22;35047;37.588;-122.048;2022-09-01T03:05:18;27.70;55.70
49222;DHT22;35047;37.588;-122.048;2022-09-01T03:07:50;27.80;55.70
49222;DHT22;35047;37.588;-122.048;2022-09-01T03:10:19;27.70;55.60
49222;DHT22;35047;37.588;-122.048;2022-09-01T03:12:46;27.70;55.60
49222;DHT22;35047;37.588;-122.048;2022-09-01T03:15:12;27.60;56.00
49222;DHT22;35047;37.588;-122.048;2022-09-01T03:17:38;27.50;56.00
49222;DHT22;35047;37.588;-122.048;2022-09-01T03:20:06;27.30;56.70
49222;DHT22;35047;37.588;-122.048;2022-09-01T03:22:32;27.30;57.00
49222;DHT22;35047;37.588;-122.048;2022-09-01T03:24:58;27.30;57.10
49222;DHT22;35047;37.588;-122.048;2022-09-01T03:27:25;27.30;57.50
49222;DHT22;35047;37.588;-122.048;2022-09-01T03:29:51;27.00;58.10
49222;DHT22;35047;37.588;-122.048;2022-09-01T03:32:17;27.00;58.40
49222;DHT22;35047;37.588;-122.048;2022-09-01T03:34:44;26.70;58.80
49222;DHT22;35047;37.588;-122.048;2022-09-01T03:37:10;26.70;58.70
49222;DHT22;35047;37.588;-122.048;2022-09-01T03:39:39;26.60;59.20
49222;DHT22;35047;37.588;-122.048;2022-09-01T03:42:06;26.60;59.00
49222;DHT22;35047;37.588;-122.048;2022-09-01T03:44:35;26.60;59.20
49222;DHT22;35047;37.588;-122.048;2022-09-01T03:47:05;26.60;59.00
49222;DHT22;35047;37.588;-122.048;2022-09-01T03:49:35;26.60;59.30
49222;DHT22;35047;37.588;-122.048;2022-09-01T03:52:04;26.60;59.20
49222;DHT22;35047;37.588;-122.048;2022-09-01T03:54:33;26.60;59.30
49222;DHT22;35047;37.588;-122.048;2022-09-01T03:57:00;26.60;59.10
49222;DHT22;35047;37.588;-122.048;2022-09-01T03:59:30;26.50;59.10
49222;DHT22;35047;37.588;-122.048;2022-09-01T04:01:58;26.50;59.20
49222;DHT22;35047;37.588;-122.048;2022-09-01T04:04:25;26.40;59.40
49222;DHT22;35047;37.588;-122.048;2022-09-01T04:06:51;26.30;59.50
49222;DHT22;35047;37.588;-122.048;2022-09-01T04:09:17;26.30;59.60
49222;DHT22;35047;37.588;-122.048;2022-09-01T04:11:45;26.20;59.40
49222;DHT22;35047;37.588;-122.048;2022-09-01T04:14:13;26.20;59.00
49222;DHT22;35047;37.588;-122.048;2022-09-01T04:16:39;26.10;59.70
49222;DHT22;35047;37.588;-122.048;2022-09-01T04:19:25;25.90;60.50
49222;DHT22;35047;37.588;-122.048;2022-09-01T04:21:56;25.80;61.00
49222;DHT22;35047;37.588;-122.048;2022-09-01T04:24:24;25.80;61.30
49222;DHT22;35047;37.588;-122.048;2022-09-01T04:26:54;25.90;61.70
49222;DHT22;35047;37.588;-122.048;2022-09-01T04:29:21;25.70;61.90
49222;DHT22;35047;37.588;-122.048;2022-09-01T04:31:52;25.70;62.00
49222;DHT22;35047;37.588;-122.048;2022-09-01T04:34:19;25.80;62.10
49222;DHT22;35047;37.588;-122.048;2022-09-01T04:36:46;25.60;62.20
49222;DHT22;35047;37.588;-122.048;2022-09-01T04:39:13;25.50;62.50
49222;DHT22;35047;37.588;-122.048;2022-09-01T04:41:43;25.40;63.00
49222;DHT22;35047;37.588;-122.048;2022-09-01T04:44:16;25.30;64.00
49222;DHT22;35047;37.588;-122.048;2022-09-01T04:46:43;25.30;63.40
49222;DHT22;35047;37.588;-122.048;2022-09-01T04:49:16;25.30;63.70
49222;DHT22;35047;37.588;-122.048;2022-09-01T04:51:49;25.30;63.30
49222;DHT22;35047;37.588;-122.048;2022-09-01T04:54:16;25.20;64.00
49222;DHT22;35047;37.588;-122.048;2022-09-01T04:56:44;25.30;63.70
49222;DHT22;35047;37.588;-122.048;2022-09-01T04:59:11;25.20;63.60
49222;DHT22;35047;37.588;-122.048;2022-09-01T05:01:38;25.20;63.60
49222;DHT22;35047;37.588;-122.048;2022-09-01T05:04:10;25.20;64.00
49222;DHT22;35047;37.588;-122.048;2022-09-01T05:06:38;25.30;63.90
49222;DHT22;35047;37.588;-122.048;2022-09-01T05:09:06;25.30;63.80
49222;DHT22;35047;37.588;-122.048;2022-09-01T05:11:34;25.20;63.40
49222;DHT22;35047;37.588;-122.048;2022-09-01T05:14:02;25.10;63.80
49222;DHT22;35047;37.588;-122.048;2022-09-01T05:16:29;25.10;64.10
49222;DHT22;35047;37.588;-122.048;2022-09-01T05:18:55;25.00;64.20
49222;DHT22;35047;37.588;-122.048;2022-09-01T05:21:23;25.00;64.30
49222;DHT22;35047;37.588;-122.048;2022-09-01T05:23:54;25.10;64.30
49222;DHT22;35047;37.588;-122.048;2022-09-01T05:26:24;25.10;64.30
49222;DHT22;35047;37.588;-122.048;2022-09-01T05:28:53;25.00;64.20
49222;DHT22;35047;37.588;-122.048;2022-09-01T05:31:20;25.00;64.30
49222;DHT22;35047;37.588;-122.048;2022-09-01T05:33:47;24.90;64.30
49222;DHT22;35047;37.588;-122.048;2022-09-01T05:36:15;24.90;64.30
49222;DHT22;35047;37.588;-122.048;2022-09-01T05:38:42;24.90;64.40
49222;DHT22;35047;37.588;-122.048;2022-09-01T05:41:09;24.80;64.60
49222;DHT22;35047;37.588;-122.048;2022-09-01T05:43:46;24.80;64.90
49222;DHT22;35047;37.588;-122.048;2022-09-01T05:46:15;24.80;64.80
49222;DHT22;35047;37.588;-122.048;2022-09-01T05:48:43;24.80;64.70
49222;DHT22;35047;37.588;-122.048;2022-09-01T05:51:10;24.70;64.60
49222;DHT22;35047;37.588;-122.048;2022-09-01T05:53:40;24.50;65.50
49222;DHT22;35047;37.588;-122.048;2022-09-01T05:56:09;24.60;65.30
49222;DHT22;35047;37.588;-122.048;2022-09-01T05:58:37;24.60;65.10
49222;DHT22;35047;37.588;-122.048;2022-09-01T06:01:05;24.60;65.00
49222;DHT22;35047;37.588;-122.048;2022-09-01T06:03:33;24.70;65.00
49222;DHT22;35047;37.588;-122.048;2022-09-01T06:06:01;24.70;64.90
49222;DHT22;35047;37.588;-122.048;2022-09-01T06:08:27;24.60;64.50
49222;DHT22;35047;37.588;-122.048;2022-09-01T06:10:54;24.60;64.50
49222;DHT22;35047;37.588;-122.048;2022-09-01T06:13:21;24.60;64.50
49222;DHT22;35047;37.588;-122.048;2022-09-01T06:15:48;24.60;64.40
49222;DHT22;35047;37.588;-122.048;2022-09-01T06:18:18;24.50;64.30
49222;DHT22;35047;37.588;-122.048;2022-09-01T06:20:46;24.50;64.20
49222;DHT22;35047;37.588;-122.048;2022-09-01T06:23:13;24.50;64.20
49222;DHT22;35047;37.588;-122.048;2022-09-01T06:25:42;24.50;64.30
49222;DHT22;35047;37.588;-122.048;2022-09-01T06:28:14;24.40;64.20
49222;DHT22;35047;37.588;-122.048;2022-09-01T06:30:41;24.50;64.10
49222;DHT22;35047;37.588;-122.048;2022-09-01T06:33:09;24.40;63.90
49222;DHT22;35047;37.588;-122.048;2022-09-01T06:35:36;24.40;63.90
49222;DHT22;35047;37.588;-122.048;2022-09-01T06:38:04;24.30;64.40
49222;DHT22;35047;37.588;-122.048;2022-09-01T06:40:32;24.20;64.90
49222;DHT22;35047;37.588;-122.048;2022-09-01T06:42:58;24.10;65.40
49222;DHT22;35047;37.588;-122.048;2022-09-01T06:45:26;24.00;65.80
49222;DHT22;35047;37.588;-122.048;2022-09-01T06:47:52;24.00;65.90
49222;DHT22;35047;37.588;-122.048;2022-09-01T06:50:21;24.00;65.80
49222;DHT22;35047;37.588;-122.048;2022-09-01T06:52:49;23.80;66.30
49222;DHT22;35047;37.588;-122.048;2022-09-01T06:55:26;23.80;66.40
49222;DHT22;35047;37.588;-122.048;2022-09-01T06:57:56;23.80;66.40
49222;DHT22;35047;37.588;-122.048;2022-09-01T07:00:23;23.80;66.40
49222;DHT22;35047;37.588;-122.048;2022-09-01T07:02:54;23.80;66.20
49222;DHT22;35047;37.588;-122.048;2022-09-01T07:05:21;23.80;66.30
49222;DHT22;35047;37.588;-122.048;2022-09-01T07:07:49;23.80;66.20
49222;DHT22;35047;37.588;-122.048;2022-09-01T07:10:17;23.70;65.90
49222;DHT22;35047;37.588;-122.048;2022-09-01T07:12:53;23.70;66.30
49222;DHT22;35047;37.588;-122.048;2022-09-01T07:15:21;23.70;66.30
49222;DHT22;35047;37.588;-122.048;2022-09-01T07:17:48;23.70;66.20
49222;DHT22;35047;37.588;-122.048;2022-09-01T07:20:15;23.70;66.20
49222;DHT22;35047;37.588;-122.048;2022-09-01T07:22:42;23.70;66.00
49222;DHT22;35047;37.588;-122.048;2022-09-01T07:25:09;23.70;65.90
49222;DHT22;35047;37.588;-122.048;2022-09-01T07:27:38;23.60;65.50
49222;DHT22;35047;37.588;-122.048;2022-09-01T07:30:05;23.60;65.40
49222;DHT22;35047;37.588;-122.048;2022-09-01T07:32:36;23.50;64.90
49222;DHT22;35047;37.588;-122.048;2022-09-01T07:35:08;23.50;65.40
49222;DHT22;35047;37.588;-122.048;2022-09-01T07:37:34;23.50;65.30
49222;DHT22;35047;37.588;-122.048;2022-09-01T07:40:04;23.50;65.30
49222;DHT22;35047;37.588;-122.048;2022-09-01T07:42:31;23.50;65.20
49222;DHT22;35047;37.588;-122.048;2022-09-01T07:44:58;23.40;65.10
49222;DHT22;35047;37.588;-122.048;2022-09-01T07:47:25;23.40;64.70
49222;DHT22;35047;37.588;-122.048;2022-09-01T07:49:54;23.40;64.40
49222;DHT22;35047;37.588;-122.048;2022-09-01T07:52:20;23.30;64.20
49222;DHT22;35047;37.588;-122.048;2022-09-01T07:54:48;23.30;64.00
49222;DHT22;35047;37.588;-122.048;2022-09-01T07:57:15;23.30;64.20
49222;DHT22;35047;37.588;-122.048;2022-09-01T07:59:42;23.30;64.20
49222;DHT22;35047;37.588;-122.048;2022-09-01T08:02:08;23.20;64.20
49222;DHT22;35047;37.588;-122.048;2022-09-01T08:04:35;23.20;64.10
49222;DHT22;35047;37.588;-122.048;2022-09-01T08:07:04;23.20;64.40
49222;DHT22;35047;37.588;-122.048;2022-09-01T08:09:30;23.10;64.30
49222;DHT22;35047;37.588;-122.048;2022-09-01T08:11:57;23.20;64.40
49222;DHT22;35047;37.588;-122.048;2022-09-01T08:14:23;23.10;64.40
49222;DHT22;35047;37.588;-122.048;2022-09-01T08:16:49;23.10;64.20
49222;DHT22;35047;37.588;-122.048;2022-09-01T08:19:15;23.00;64.30
49222;DHT22;35047;37.588;-122.048;2022-09-01T08:21:43;23.00;64.40
49222;DHT22;35047;37.588;-122.048;2022-09-01T08:24:09;23.00;65.00
49222;DHT22;35047;37.588;-122.048;2022-09-01T08:26:35;23.00;64.20
49222;DHT22;35047;37.588;-122.048;2022-09-01T08:29:02;23.00;64.40
49222;DHT22;35047;37.588;-122.048;2022-09-01T08:31:28;22.90;64.10
49222;DHT22;35047;37.588;-122.048;2022-09-01T08:33:54;22.90;64.10
49222;DHT22;35047;37.588;-122.048;2022-09-01T08:36:21;22.90;64.00
49222;DHT22;35047;37.588;-122.048;2022-09-01T08:38:48;22.80;63.60
49222;DHT22;35047;37.588;-122.048;2022-09-01T08:41:57;22.80;63.90
49222;DHT22;35047;37.588;-122.048;2022-09-01T08:46:38;22.70;63.30
49222;DHT22;35047;37.588;-122.048;2022-09-01T08:49:11;22.70;63.50
49222;DHT22;35047;37.588;-122.048;2022-09-01T08:51:39;22.70;63.40
49222;DHT22;35047;37.588;-122.048;2022-09-01T08:56:45;22.70;63.40
49222;DHT22;35047;37.588;-122.048;2022-09-01T08:59:12;22.60;63.20
49222;DHT22;35047;37.588;-122.048;2022-09-01T09:10:05;22.50;63.60
49222;DHT22;35047;37.588;-122.048;2022-09-01T09:12:38;22.50;63.70
49222;DHT22;35047;37.588;-122.048;2022-09-01T09:17:42;22.40;63.50
49222;DHT22;35047;37.588;-122.048;2022-09-01T09:20:10;22.40;63.60
49222;DHT22;35047;37.588;-122.048;2022-09-01T09:22:36;22.30;63.80
49222;DHT22;35047;37.588;-122.048;2022-09-01T09:25:11;22.30;64.00
49222;DHT22;35047;37.588;-122.048;2022-09-01T09:27:40;22.30;64.10
49222;DHT22;35047;37.588;-122.048;2022-09-01T09:30:10;22.30;64.00
49222;DHT22;35047;37.588;-122.048;2022-09-01T09:32:42;22.30;63.80
49222;DHT22;35047;37.588;-122.048;2022-09-01T09:37:47;22.20;64.10
49222;DHT22;35047;37.588;-122.048;2022-09-01T09:45:22;22.10;64.50
49222;DHT22;35047;37.588;-122.048;2022-09-01T09:47:49;22.10;64.60
49222;DHT22;35047;37.588;-122.048;2022-09-01T09:50:17;22.10;64.60
49222;DHT22;35047;37.588;-122.048;2022-09-01T09:52:45;22.10;64.30
49222;DHT22;35047;37.588;-122.048;2022-09-01T09:55:22;22.10;64.50
49222;DHT22;35047;37.588;-122.048;2022-09-01T09:57:49;22.10;64.60
49222;DHT22;35047;37.588;-122.048;2022-09-01T10:00:26;22.10;64.60
49222;DHT22;35047;37.588;-122.048;2022-09-01T10:02:58;22.00;64.70
49222;DHT22;35047;37.588;-122.048;2022-09-01T10:05:40;22.00;64.60
49222;DHT22;35047;37.588;-122.048;2022-09-01T10:08:10;21.90;64.50
49222;DHT22;35047;37.588;-122.048;2022-09-01T10:10:38;21.90;64.70
49222;DHT22;35047;37.588;-122.048;2022-09-01T10:13:12;21.90;64.80
49222;DHT22;35047;37.588;-122.048;2022-09-01T10:15:39;21.90;64.90
49222;DHT22;35047;37.588;-122.048;2022-09-01T10:18:08;21.90;64.80
49222;DHT22;35047;37.588;-122.048;2022-09-01T10:20:40;21.90;64.50
49222;DHT22;35047;37.588;-122.048;2022-09-01T10:23:12;21.90;64.80
49222;DHT22;35047;37.588;-122.048;2022-09-01T10:25:39;21.90;65.10
49222;DHT22;35047;37.588;-122.048;2022-09-01T10:28:11;21.80;64.90
49222;DHT22;35047;37.588;-122.048;2022-09-01T10:30:39;21.80;64.40
49222;DHT22;35047;37.588;-122.048;2022-09-01T10:33:08;21.80;64.70
49222;DHT22;35047;37.588;-122.048;2022-09-01T10:35:36;21.80;64.70
49222;DHT22;35047;37.588;-122.048;2022-09-01T10:38:06;21.80;64.50
49222;DHT22;35047;37.588;-122.048;2022-09-01T10:43:22;21.70;64.70
49222;DHT22;35047;37.588;-122.048;2022-09-01T10:45:46;21.70;64.60
49222;DHT22;35047;37.588;-122.048;2022-09-01T10:50:50;21.70;64.70
49222;DHT22;35047;37.588;-122.048;2022-09-01T10:56:00;21.70;64.70
49222;DHT22;35047;37.588;-122.048;2022-09-01T11:00:55;21.60;65.20
49222;DHT22;35047;37.588;-122.048;2022-09-01T11:05:59;21.60;65.00
49222;DHT22;35047;37.588;-122.048;2022-09-01T11:13:47;21.50;65.30
49222;DHT22;35047;37.588;-122.048;2022-09-01T11:18:49;21.50;65.60
49222;DHT22;35047;37.588;-122.048;2022-09-01T11:21:19;21.50;65.30
49222;DHT22;35047;37.588;-122.048;2022-09-01T11:23:48;21.40;65.90
49222;DHT22;35047;37.588;-122.048;2022-09-01T11:28:57;21.40;66.00
49222;DHT22;35047;37.588;-122.048;2022-09-01T11:31:25;21.40;65.90
49222;DHT22;35047;37.588;-122.048;2022-09-01T11:36:32;21.40;65.50
49222;DHT22;35047;37.588;-122.048;2022-09-01T11:39:04;21.40;65.50
49222;DHT22;35047;37.588;-122.048;2022-09-01T11:42:15;21.40;65.50
49222;DHT22;35047;37.588;-122.048;2022-09-01T11:44:33;21.40;65.20
49222;DHT22;35047;37.588;-122.048;2022-09-01T11:47:02;21.30;64.90
49222;DHT22;35047;37.588;-122.048;2022-09-01T11:49:30;21.30;64.90
49222;DHT22;35047;37.588;-122.048;2022-09-01T11:51:58;21.30;65.00
49222;DHT22;35047;37.588;-122.048;2022-09-01T11:54:25;21.30;64.90
49222;DHT22;35047;37.588;-122.048;2022-09-01T11:56:52;21.30;65.20
49222;DHT22;35047;37.588;-122.048;2022-09-01T11:59:31;21.30;65.00
49222;DHT22;35047;37.588;-122.048;2022-09-01T12:01:58;21.30;65.00
49222;DHT22;35047;37.588;-122.048;2022-09-01T12:04:29;21.20;65.10
49222;DHT22;35047;37.588;-122.048;2022-09-01T12:06:57;21.20;65.30
49222;DHT22;35047;37.588;-122.048;2022-09-01T12:09:38;21.20;65.30
49222;DHT22;35047;37.588;-122.048;2022-09-01T12:12:07;21.20;65.30
49222;DHT22;35047;37.588;-122.048;2022-09-01T12:14:57;21.20;65.20
49222;DHT22;35047;37.588;-122.048;2022-09-01T12:17:24;21.20;65.10
49222;DHT22;35047;37.588;-122.048;2022-09-01T12:19:51;21.20;64.80
49222;DHT22;35047;37.588;-122.048;2022-09-01T12:22:19;21.10;64.70
49222;DHT22;35047;37.588;-122.048;2022-09-01T12:24:49;21.10;64.60
49222;DHT22;35047;37.588;-122.048;2022-09-01T12:27:16;21.00;65.50
49222;DHT22;35047;37.588;-122.048;2022-09-01T12:29:43;21.00;65.60
49222;DHT22;35047;37.588;-122.048;2022-09-01T12:32:10;21.00;65.30
49222;DHT22;35047;37.588;-122.048;2022-09-01T12:34:39;20.90;65.50
49222;DHT22;35047;37.588;-122.048;2022-09-01T12:39:47;20.80;65.90
49222;DHT22;35047;37.588;-122.048;2022-09-01T12:44:49;20.80;66.60
49222;DHT22;35047;37.588;-122.048;2022-09-01T12:52:35;20.80;67.10
49222;DHT22;35047;37.588;-122.048;2022-09-01T12:57:32;20.80;67.10
49222;DHT22;35047;37.588;-122.048;2022-09-01T13:05:20;20.80;67.40
49222;DHT22;35047;37.588;-122.048;2022-09-01T13:07:47;20.80;67.50
49222;DHT22;35047;37.588;-122.048;2022-09-01T13:10:14;20.80;67.70
49222;DHT22;35047;37.588;-122.048;2022-09-01T13:12:41;20.80;68.00
49222;DHT22;35047;37.588;-122.048;2022-09-01T13:15:08;20.80;68.30
49222;DHT22;35047;37.588;-122.048;2022-09-01T13:17:34;20.80;68.50
49222;DHT22;35047;37.588;-122.048;2022-09-01T13:20:05;20.80;68.50
49222;DHT22;35047;37.588;-122.048;2022-09-01T13:22:32;20.80;68.70
49222;DHT22;35047;37.588;-122.048;2022-09-01T13:25:00;20.80;68.80
49222;DHT22;35047;37.588;-122.048;2022-09-01T13:27:26;20.80;68.80
49222;DHT22;35047;37.588;-122.048;2022-09-01T13:29:53;20.80;68.70
49222;DHT22;35047;37.588;-122.048;2022-09-01T13:32:19;20.80;68.60
49222;DHT22;35047;37.588;-122.048;2022-09-01T13:34:46;20.80;68.50
49222;DHT22;35047;37.588;-122.048;2022-09-01T13:37:13;20.80;68.50
49222;DHT22;35047;37.588;-122.048;2022-09-01T13:39:39;20.80;68.60
49222;DHT22;35047;37.588;-122.048;2022-09-01T13:42:05;20.80;68.60
49222;DHT22;35047;37.588;-122.048;2022-09-01T13:44:32;20.80;68.50
49222;DHT22;35047;37.588;-122.048;2022-09-01T13:46:58;20.80;68.60
49222;DHT22;35047;37.588;-122.048;2022-09-01T13:49:25;20.80;68.80
49222;DHT22;35047;37.588;-122.048;2022-09-01T13:51:51;20.70;68.80
49222;DHT22;35047;37.588;-122.048;2022-09-01T13:54:18;20.80;68.90
49222;DHT22;35047;37.588;-122.048;2022-09-01T13:56:45;20.80;68.80
49222;DHT22;35047;37.588;-122.048;2022-09-01T13:59:13;20.80;69.00
49222;DHT22;35047;37.588;-122.048;2022-09-01T14:01:39;20.80;69.00
49222;DHT22;35047;37.588;-122.048;2022-09-01T14:04:08;20.80;68.80
49222;DHT22;35047;37.588;-122.048;2022-09-01T14:06:39;20.80;68.70
49222;DHT22;35047;37.588;-122.048;2022-09-01T14:09:05;20.80;69.20
49222;DHT22;35047;37.588;-122.048;2022-09-01T14:11:31;20.80;69.40
49222;DHT22;35047;37.588;-122.048;2022-09-01T14:13:57;20.80;69.50
49222;DHT22;35047;37.588;-122.048;2022-09-01T14:16:24;20.80;69.50
49222;DHT22;35047;37.588;-122.048;2022-09-01T14:18:50;20.80;69.60
49222;DHT22;35047;37.588;-122.048;2022-09-01T14:21:17;20.90;69.60
49222;DHT22;35047;37.588;-122.048;2022-09-01T14:23:43;20.90;69.70
49222;DHT22;35047;37.588;-122.048;2022-09-01T14:26:11;20.90;69.80
49222;DHT22;35047;37.588;-122.048;2022-09-01T14:28:39;20.90;70.20
49222;DHT22;35047;37.588;-122.048;2022-09-01T14:31:08;20.90;70.70
49222;DHT22;35047;37.588;-122.048;2022-09-01T14:33:35;21.00;70.90
49222;DHT22;35047;37.588;-122.048;2022-09-01T14:36:02;21.00;71.10
49222;DHT22;35047;37.588;-122.048;2022-09-01T14:38:29;21.00;71.20
49222;DHT22;35047;37.588;-122.048;2022-09-01T14:40:55;21.10;71.30
49222;DHT22;35047;37.588;-122.048;2022-09-01T14:43:22;21.10;71.70
49222;DHT22;35047;37.588;-122.048;2022-09-01T14:45:48;21.10;71.90
49222;DHT22;35047;37.588;-122.048;2022-09-01T14:48:17;21.10;71.70
49222;DHT22;35047;37.588;-122.048;2022-09-01T14:50:46;21.20;72.50
49222;DHT22;35047;37.588;-122.048;2022-09-01T14:53:13;21.20;72.40
49222;DHT22;35047;37.588;-122.048;2022-09-01T14:55:39;21.30;72.50
49222;DHT22;35047;37.588;-122.048;2022-09-01T14:58:06;21.30;72.20
49222;DHT22;35047;37.588;-122.048;2022-09-01T15:00:32;21.40;72.60
49222;DHT22;35047;37.588;-122.048;2022-09-01T15:03:00;21.40;72.20
49222;DHT22;35047;37.588;-122.048;2022-09-01T15:05:26;21.50;72.90
49222;DHT22;35047;37.588;-122.048;2022-09-01T15:07:53;21.50;72.30
49222;DHT22;35047;37.588;-122.048;2022-09-01T15:10:20;21.60;72.10
49222;DHT22;35047;37.588;-122.048;2022-09-01T15:12:47;21.60;71.90
49222;DHT22;35047;37.588;-122.048;2022-09-01T15:15:14;21.60;72.00
49222;DHT22;35047;37.588;-122.048;2022-09-01T15:17:41;21.70;72.50
49222;DHT22;35047;37.588;-122.048;2022-09-01T15:20:08;21.80;72.70
49222;DHT22;35047;37.588;-122.048;2022-09-01T15:22:53;21.90;71.40
49222;DHT22;35047;37.588;-122.048;2022-09-01T15:25:21;22.00;71.60
49222;DHT22;35047;37.588;-122.048;2022-09-01T15:27:47;22.00;71.20
49222;DHT22;35047;37.588;-122.048;2022-09-01T15:30:13;22.10;71.50
49222;DHT22;35047;37.588;-122.048;2022-09-01T15:32:42;22.10;71.30
49222;DHT22;35047;37.588;-122.048;2022-09-01T15:35:09;22.10;71.30
49222;DHT22;35047;37.588;-122.048;2022-09-01T15:37:36;22.20;71.30
49222;DHT22;35047;37.588;-122.048;2022-09-01T15:40:02;22.20;71.60
49222;DHT22;35047;37.588;-122.048;2022-09-01T15:42:29;22.20;71.10
49222;DHT22;35047;37.588;-122.048;2022-09-01T15:44:56;22.30;71.30
49222;DHT22;35047;37.588;-122.048;2022-09-01T15:47:23;22.40;70.80
49222;DHT22;35047;37.588;-122.048;2022-09-01T15:49:49;22.40;70.30
49222;DHT22;35047;37.588;-122.048;2022-09-01T15:52:15;22.40;70.50
49222;DHT22;35047;37.588;-122.048;2022-09-01T15:54:43;22.50;70.60
49222;DHT22;35047;37.588;-122.048;2022-09-01T15:57:09;22.60;70.10
49222;DHT22;35047;37.588;-122.048;2022-09-01T15:59:36;22.80;70.30
49222;DHT22;35047;37.588;-122.048;2022-09-01T16:02:04;22.80;69.80
49222;DHT22;35047;37.588;-122.048;2022-09-01T16:04:31;23.00;69.50
49222;DHT22;35047;37.588;-122.048;2022-09-01T16:06:59;23.00;69.10